Time;durP1;ratioP1;P1;durP2;ratioP2;P2;SDS_P1;SDS_P2;PMS_P1;PMS_P2;Temp;Humidity;BMP_temperature;BMP_pressure;BME280_temperature;BME280_humidity;BME280_pressure;Samples;Min_cycle;Max_cycle;Signal;HPM_P1;HPM_P2
2022/05/04 00:01:28;;;;;;;6.77;6.13;;;;;;;9.34;93.06;95534.97;5037821;28;20190;-79
2022/05/04 00:03:53;;;;;;;8.80;6.90;;;;;;;9.32;93.19;95530.88;5020206;28;20182;-79
2022/05/04 00:06:19;;;;;;;7.80;5.97;;;;;;;9.26;93.38;95534.03;5020785;28;20185;-79
2022/05/04 00:08:44;;;;;;;7.03;6.43;;;;;;;9.26;93.47;95528.84;5021087;28;20185;-79
2022/05/04 00:11:09;;;;;;;6.90;6.30;;;;;;;9.26;93.81;95523.66;5036910;28;20184;-79
2022/05/04 00:13:35;;;;;;;7.30;6.60;;;;;;;9.22;93.39;95519.72;5033246;28;20204;-79
2022/05/04 00:16:01;;;;;;;7.40;6.80;;;;;;;9.23;93.24;95523.94;5037267;28;20181;-79
2022/05/04 00:18:30;;;;;;;11.60;6.70;;;;;;;9.25;93.32;95522.03;5020893;28;20181;-79
2022/05/04 00:20:55;;;;;;;7.13;6.43;;;;;;;9.15;93.29;95516.88;5021191;28;20637;-78
2022/05/04 00:23:21;;;;;;;7.83;6.43;;;;;;;9.10;93.38;95524.25;5038141;28;20178;-79
2022/05/04 00:25:46;;;;;;;7.23;6.50;;;;;;;9.06;93.85;95522.88;5020523;28;20687;-79
2022/05/04 00:28:11;;;;;;;7.63;6.50;;;;;;;8.98;94.00;95517.56;5036909;28;20182;-79
2022/05/04 00:30:36;;;;;;;7.23;6.53;;;;;;;8.93;94.35;95519.78;5036717;28;20185;-79
2022/05/04 00:33:02;;;;;;;7.00;6.40;;;;;;;8.87;94.55;95521.13;5018185;28;20244;-79
2022/05/04 00:35:27;;;;;;;7.43;6.00;;;;;;;8.83;94.64;95521.53;5018756;28;20678;-79
2022/05/04 00:37:52;;;;;;;7.63;6.30;;;;;;;8.78;95.02;95514.19;5037034;28;20187;-79
2022/05/04 00:40:18;;;;;;;7.77;7.07;;;;;;;8.74;95.38;95518.81;5036484;28;20177;-79
2022/05/04 00:42:43;;;;;;;7.27;6.63;;;;;;;8.76;95.30;95511.75;5037250;28;20182;-79
2022/05/04 00:45:09;;;;;;;8.20;6.77;;;;;;;8.77;95.18;95513.38;5019708;28;20198;-79
2022/05/04 00:47:34;;;;;;;7.63;6.93;;;;;;;8.78;95.04;95511.59;5036585;28;20224;-79
2022/05/04 00:50:04;;;;;;;6.87;6.27;;;;;;;8.78;94.73;95514.19;5020368;28;20285;-79
2022/05/04 00:52:30;;;;;;;7.83;7.13;;;;;;;8.77;94.65;95510.78;5021476;28;20178;-79
2022/05/04 00:54:56;;;;;;;8.20;7.47;;;;;;;8.74;95.22;95518.00;5035596;28;20571;-79
2022/05/04 01:00:07;;;;;;;8.17;7.37;;;;;;;8.72;94.57;95519.91;5039289;28;20181;-79
2022/05/04 01:02:32;;;;;;;8.37;7.50;;;;;;;8.69;94.94;95515.00;5036169;28;20178;-79
2022/05/04 01:04:57;;;;;;;9.00;7.67;;;;;;;8.66;95.10;95516.13;5019189;28;20217;-79
2022/05/04 01:07:23;;;;;;;8.53;7.67;;;;;;;8.59;95.02;95520.19;5036197;28;20213;-79
2022/05/04 01:09:49;;;;;;;7.43;6.73;;;;;;;8.57;95.36;95511.75;5054571;28;20178;-78
2022/05/04 01:12:14;;;;;;;7.47;6.77;;;;;;;8.56;95.62;95528.22;5054697;28;20189;-79
2022/05/04 01:14:39;;;;;;;7.63;6.90;;;;;;;8.66;95.46;95521.28;5035633;28;20666;-79
2022/05/04 01:17:05;;;;;;;7.00;6.30;;;;;;;8.58;95.56;95520.34;5036685;28;20242;-79
2022/05/04 01:19:30;;;;;;;7.60;6.90;;;;;;;8.51;95.94;95517.47;5019917;28;20224;-79
2022/05/04 01:21:55;;;;;;;8.53;7.73;;;;;;;8.50;96.05;95524.41;5036054;28;20189;-79
2022/05/04 01:24:21;;;;;;;7.60;6.90;;;;;;;8.48;96.19;95528.06;5036009;28;20225;-79
2022/05/04 01:26:46;;;;;;;8.83;7.77;;;;;;;8.49;96.26;95530.53;5027135;28;20833;-79
2022/05/04 01:29:12;;;;;;;8.57;7.63;;;;;;;8.47;96.13;95529.03;5016558;28;20175;-79
2022/05/04 01:31:37;;;;;;;8.93;7.63;;;;;;;8.44;95.92;95519.78;5034024;28;20178;-78
2022/05/04 01:34:03;;;;;;;7.33;6.73;;;;;;;8.41;96.48;95521.81;5016124;28;20210;-79
2022/05/04 01:36:28;;;;;;;7.57;6.87;;;;;;;8.31;96.12;95520.97;5015097;28;20178;-79
2022/05/04 01:38:53;;;;;;;8.07;7.27;;;;;;;8.26;96.31;95523.13;5032853;28;20202;-79
2022/05/04 01:44:16;;;;;;;8.40;7.70;;;;;;;8.21;96.65;95524.31;4972257;28;20212;-79
2022/05/04 01:46:42;;;;;;;8.50;7.67;;;;;;;8.20;96.95;95521.88;4956734;28;20180;-79
2022/05/04 01:49:07;;;;;;;8.60;7.73;;;;;;;8.26;96.80;95517.94;4972507;28;20192;-79
2022/05/04 01:51:32;;;;;;;8.03;7.23;;;;;;;8.33;96.95;95517.28;4972590;28;20263;-79
2022/05/04 01:53:58;;;;;;;7.90;7.30;;;;;;;8.46;96.72;95522.22;4972260;28;20304;-79
2022/05/04 01:56:23;;;;;;;8.47;7.67;;;;;;;8.31;96.72;95514.03;4956908;28;20184;-79
2022/05/04 01:58:48;;;;;;;7.67;6.93;;;;;;;8.25;96.87;95511.97;4973116;28;20542;-78
2022/05/04 02:01:13;;;;;;;9.20;7.87;;;;;;;8.21;96.79;95513.97;4973661;28;20193;-79
2022/05/04 02:03:39;;;;;;;8.67;7.83;;;;;;;8.16;96.94;95511.00;4955917;28;20185;-79
2022/05/04 02:06:04;;;;;;;8.23;7.47;;;;;;;8.14;96.98;95517.25;4956011;28;20228;-79
2022/05/04 02:08:30;;;;;;;8.33;7.53;;;;;;;8.20;97.35;95514.94;4956719;28;20196;-78
2022/05/04 02:10:55;;;;;;;8.83;7.93;;;;;;;8.15;97.32;95508.53;4972859;28;20177;-79
2022/05/04 02:13:20;;;;;;;8.77;7.97;;;;;;;8.09;97.63;95506.47;4957930;28;20189;-79
2022/05/04 02:15:46;;;;;;;7.80;7.10;;;;;;;8.03;97.43;95512.19;4976221;28;20446;-79
2022/05/04 02:18:11;;;;;;;8.20;7.43;;;;;;;8.01;97.69;95514.91;4976261;28;20191;-79
2022/05/04 02:20:36;;;;;;;8.60;7.90;;;;;;;7.94;97.84;95509.44;5012534;28;20225;-79
2022/05/04 02:23:02;;;;;;;8.77;7.97;;;;;;;7.92;98.27;95513.09;5036211;28;20175;-79
2022/05/04 02:25:27;;;;;;;8.77;7.90;;;;;;;7.91;98.47;95508.88;5035319;28;20220;-79
2022/05/04 02:27:52;;;;;;;9.10;8.20;;;;;;;7.90;98.33;95508.06;5019361;28;20257;-79
2022/05/04 02:30:18;;;;;;;8.30;7.60;;;;;;;7.90;98.35;95504.66;5019542;28;20183;-79
2022/05/04 02:32:43;;;;;;;8.17;7.37;;;;;;;7.93;98.42;95500.03;5019880;28;20178;-79
2022/05/04 02:37:56;;;;;;;8.63;7.50;;;;;;;7.95;98.20;95503.34;5022244;28;20247;-79
2022/05/04 02:40:21;;;;;;;8.73;7.93;;;;;;;7.93;98.38;95496.63;5003523;28;20186;-79
2022/05/04 02:42:47;;;;;;;9.63;7.57;;;;;;;8.04;98.05;95503.47;5018965;28;20186;-79
2022/05/04 02:45:12;;;;;;;8.50;7.70;;;;;;;7.99;98.26;95496.13;5018165;28;20213;-79
2022/05/04 02:47:39;;;;;;;8.17;7.17;;;;;;;7.93;98.18;95501.81;5019081;28;20170;-79
2022/05/04 02:50:05;;;;;;;8.93;7.97;;;;;;;7.92;98.77;95501.00;5019094;28;20205;-79
2022/05/04 02:52:30;;;;;;;8.70;7.80;;;;;;;7.89;98.29;95496.09;5003038;28;20178;-79
2022/05/04 02:54:56;;;;;;;8.80;7.87;;;;;;;7.86;98.42;95495.53;5018455;28;20280;-79
2022/05/04 02:57:22;;;;;;;9.63;8.10;;;;;;;7.83;98.40;95501.78;5035419;28;20286;-78
2022/05/04 02:59:47;;;;;;;9.03;8.13;;;;;;;7.82;98.60;95494.16;5002358;28;20187;-79
2022/05/04 03:02:27;;;;;;;8.93;8.10;;;;;;;7.83;98.67;95495.81;5036415;28;20524;-79
2022/05/04 03:04:54;;;;;;;9.90;7.40;;;;;;;7.81;98.85;95495.13;5036277;28;20202;-79
2022/05/04 03:07:20;;;;;;;9.73;8.30;;;;;;;7.79;98.73;95487.50;5018664;28;20170;-79
2022/05/04 03:09:45;;;;;;;9.37;8.57;;;;;;;7.77;98.49;95488.56;5036296;28;20560;-79
2022/05/04 03:12:10;;;;;;;8.87;8.07;;;;;;;7.77;97.98;95496.31;5018673;28;20520;-79
2022/05/04 03:14:36;;;;;;;10.93;8.30;;;;;;;7.75;98.33;95490.47;5017576;28;20252;-79
2022/05/04 03:17:01;;;;;;;12.07;8.03;;;;;;;7.75;98.12;95491.28;5018369;28;20186;-77
2022/05/04 03:19:27;;;;;;;9.20;7.90;;;;;;;7.75;98.37;95493.88;5017614;28;20190;-78
2022/05/04 03:21:52;;;;;;;8.67;7.83;;;;;;;7.76;98.62;95494.69;5017882;28;20236;-79
2022/05/04 03:24:18;;;;;;;10.20;9.30;;;;;;;7.93;98.56;95486.28;5016678;28;20202;-79
2022/05/04 03:26:44;;;;;;;9.47;8.60;;;;;;;7.98;98.54;95494.47;5018123;28;20643;-79
2022/05/04 03:29:10;;;;;;;9.77;8.80;;;;;;;8.09;98.07;95483.19;5018821;28;20185;-78
2022/05/04 03:31:35;;;;;;;10.03;9.03;;;;;;;8.17;97.73;95489.34;5018960;28;20509;-78
2022/05/04 03:34:01;;;;;;;9.73;8.83;;;;;;;8.24;97.66;95493.03;5018320;28;20213;-78
2022/05/04 03:36:26;;;;;;;9.53;8.63;;;;;;;8.32;97.50;95492.38;5034853;28;20701;-78
2022/05/04 03:38:52;;;;;;;9.70;8.83;;;;;;;8.37;97.22;95490.19;5018031;28;20312;-78
2022/05/04 03:41:17;;;;;;;9.90;8.93;;;;;;;8.41;96.93;95493.34;5034534;28;20186;-78
2022/05/04 03:43:42;;;;;;;10.67;9.63;;;;;;;8.45;96.82;95486.94;5017631;28;20611;-78
2022/05/04 03:46:20;;;;;;;11.30;10.03;;;;;;;8.49;96.59;95486.56;5019160;28;20239;-79
2022/05/04 03:48:47;;;;;;;9.53;8.63;;;;;;;8.58;96.40;95491.88;5019696;28;20170;-79
2022/05/04 03:51:19;;;;;;;9.30;8.50;;;;;;;8.60;96.08;95484.78;5019700;28;20232;-79
2022/05/04 03:53:45;;;;;;;9.83;8.83;;;;;;;8.69;95.88;95489.13;5020738;28;20179;-78
2022/05/04 03:56:10;;;;;;;11.30;8.27;;;;;;;8.74;95.82;95489.50;5021859;28;20592;-79
2022/05/04 03:58:37;;;;;;;9.73;8.73;;;;;;;8.73;95.65;95487.88;5015602;28;20196;-78
2022/05/04 04:01:03;;;;;;;10.90;8.40;;;;;;;8.71;95.91;95492.38;5041828;28;20361;-79
2022/05/04 04:03:28;;;;;;;9.10;8.10;;;;;;;8.72;95.67;95494.03;5036636;28;20698;-80
2022/05/04 04:05:54;;;;;;;9.03;8.13;;;;;;;8.72;95.90;95492.25;5019167;28;20296;-78
2022/05/04 04:08:20;;;;;;;9.00;8.10;;;;;;;8.74;95.95;95487.75;5037497;28;20197;-79
2022/05/04 04:10:45;;;;;;;8.80;7.97;;;;;;;8.73;95.96;95486.09;5036089;28;20209;-79
2022/05/04 04:13:11;;;;;;;9.63;7.70;;;;;;;8.72;95.87;95491.44;5036561;28;20554;-79
2022/05/04 04:15:36;;;;;;;9.00;8.20;;;;;;;8.69;95.99;95495.13;5054480;28;20193;-79
2022/05/04 04:18:01;;;;;;;9.03;7.93;;;;;;;8.66;96.17;95495.41;5054868;28;20189;-79
2022/05/04 04:23:10;;;;;;;8.67;7.87;;;;;;;8.62;96.55;95495.81;5051990;28;20184;-79
2022/05/04 04:25:37;;;;;;;7.87;7.17;;;;;;;8.65;96.64;95500.69;5019081;28;20225;-79
2022/05/04 04:28:02;;;;;;;9.17;7.27;;;;;;;8.68;96.18;95503.84;5019283;28;20182;-79
2022/05/04 04:30:27;;;;;;;8.13;7.43;;;;;;;8.71;95.69;95503.56;5019378;28;20189;-78
2022/05/04 04:32:53;;;;;;;8.63;7.80;;;;;;;8.75;95.63;95510.13;5035277;28;20949;-78
2022/05/04 04:35:18;;;;;;;8.20;7.50;;;;;;;8.79;95.25;95510.66;5034706;28;20217;-79
2022/05/04 04:37:43;;;;;;;7.93;7.13;;;;;;;8.87;94.72;95508.19;5036229;28;20185;-78
2022/05/04 04:40:09;;;;;;;8.90;8.10;;;;;;;8.95;94.72;95516.09;5036215;28;20552;-78
2022/05/04 04:42:34;;;;;;;8.90;8.10;;;;;;;9.02;94.72;95516.34;5019176;28;20639;-79
2022/05/04 04:44:59;;;;;;;11.47;7.73;;;;;;;9.09;94.28;95515.63;5002479;28;20226;-78
2022/05/04 04:47:25;;;;;;;7.57;6.97;;;;;;;9.22;93.44;95517.94;5019521;28;20184;-79
2022/05/04 04:49:51;;;;;;;7.90;7.10;;;;;;;9.30;92.62;95520.66;5034342;28;20551;-79
2022/05/04 04:52:16;;;;;;;11.53;7.20;;;;;;;9.40;92.20;95519.81;5019265;28;20178;-77
2022/05/04 04:54:42;;;;;;;7.97;7.17;;;;;;;9.61;91.25;95520.41;5034736;28;20208;-77
2022/05/04 04:57:07;;;;;;;7.43;6.73;;;;;;;9.61;91.31;95523.81;5035068;28;20639;-80
2022/05/04 04:59:32;;;;;;;7.07;6.37;;;;;;;9.53;91.72;95528.09;5019165;28;20193;-79
2022/05/04 05:01:58;;;;;;;7.20;6.50;;;;;;;9.60;91.39;95523.97;5019556;28;20182;-79
2022/05/04 05:04:23;;;;;;;8.03;6.63;;;;;;;9.64;91.63;95528.75;5051825;28;20216;-79
2022/05/04 05:06:48;;;;;;;6.70;6.07;;;;;;;9.67;91.82;95532.81;5017695;28;20255;-80
2022/05/04 05:09:13;;;;;;;6.30;5.73;;;;;;;9.78;91.29;95524.84;5034204;28;20182;-80
2022/05/04 05:11:39;;;;;;;6.30;5.80;;;;;;;9.80;91.63;95522.94;5034858;28;20177;-81
2022/05/04 05:16:48;;;;;;;6.20;5.23;;;;;;;9.91;91.42;95530.53;5038422;28;20184;-79
2022/05/04 05:19:13;;;;;;;5.83;5.17;;;;;;;10.14;90.77;95533.53;5047768;28;20185;-79
2022/05/04 05:21:38;;;;;;;5.60;5.10;;;;;;;10.31;90.11;95529.38;5059629;28;20193;-79
2022/05/04 05:24:05;;;;;;;5.27;4.80;;;;;;;10.46;89.95;95522.72;5026559;28;20213;-80
2022/05/04 05:26:31;;;;;;;6.00;4.93;;;;;;;10.71;88.94;95526.38;5030725;28;20205;-80
2022/05/04 05:28:56;;;;;;;5.70;5.03;;;;;;;10.89;86.03;95521.19;5049001;28;20192;-78
2022/05/04 05:31:22;;;;;;;5.23;4.73;;;;;;;11.18;86.08;95520.09;5054589;28;20185;-78
2022/05/04 05:33:47;;;;;;;5.10;4.70;;;;;;;11.38;84.52;95531.91;5071848;28;20189;-78
2022/05/04 05:36:12;;;;;;;4.53;4.17;;;;;;;11.57;83.93;95531.72;5037786;28;20193;-79
2022/05/04 05:38:38;;;;;;;6.43;4.20;;;;;;;11.75;83.17;95530.81;5037996;28;20220;-79
2022/05/04 05:41:03;;;;;;;4.70;4.20;;;;;;;11.83;83.19;95531.72;5038571;28;20193;-79
2022/05/04 05:43:28;;;;;;;6.33;4.67;;;;;;;11.92;82.59;95529.97;5055236;28;20476;-79
2022/05/04 05:45:54;;;;;;;5.80;4.17;;;;;;;11.90;83.17;95534.50;5053792;28;20289;-79
2022/05/04 05:48:20;;;;;;;4.63;4.23;;;;;;;11.77;83.09;95540.13;5052824;28;20259;-78
2022/05/04 05:50:46;;;;;;;4.57;4.17;;;;;;;11.81;82.88;95538.84;5027650;28;20182;-78
2022/05/04 05:53:14;;;;;;;4.67;4.27;;;;;;;11.75;82.75;95543.81;5040920;28;20193;-78
2022/05/04 05:55:39;;;;;;;5.53;4.40;;;;;;;11.76;82.26;95542.88;5041474;28;20188;-79
2022/05/04 05:58:05;;;;;;;4.50;3.90;;;;;;;11.75;81.74;95547.28;5059310;28;20595;-79
2022/05/04 06:00:30;;;;;;;5.20;4.80;;;;;;;11.88;81.94;95539.06;5045474;28;20658;-78
2022/05/04 06:02:55;;;;;;;6.43;4.53;;;;;;;12.03;80.83;95542.72;5019057;28;20227;-78
2022/05/04 06:05:20;;;;;;;7.17;5.67;;;;;;;12.37;80.62;95549.69;5012506;28;20206;-78
2022/05/04 06:07:46;;;;;;;8.40;7.60;;;;;;;12.48;80.11;95550.19;5024368;28;20193;-78
2022/05/04 06:10:11;;;;;;;7.90;6.30;;;;;;;12.76;79.38;95550.72;5039280;28;20224;-78
2022/05/04 06:12:38;;;;;;;7.00;6.20;;;;;;;13.13;78.38;95557.25;5041384;28;20181;-78
2022/05/04 06:15:05;;;;;;;5.53;5.10;;;;;;;13.23;76.68;95560.53;5042030;28;20194;-79
2022/05/04 06:17:30;;;;;;;5.17;4.77;;;;;;;13.59;74.22;95560.19;5039704;28;20173;-79
2022/05/04 06:19:55;;;;;;;5.73;4.23;;;;;;;13.90;73.73;95552.47;5023566;28;20543;-79
2022/05/04 06:22:21;;;;;;;5.03;4.57;;;;;;;14.13;72.15;95552.53;5039050;28;20178;-78
2022/05/04 06:24:46;;;;;;;6.63;4.53;;;;;;;13.89;72.37;95562.09;5023011;28;20201;-79
2022/05/04 06:27:11;;;;;;;5.60;4.30;;;;;;;13.94;72.88;95564.19;5058211;28;20682;-79
2022/05/04 06:35:04;;;;;;;5.27;4.77;;;;;;;13.14;76.19;95578.94;5035188;28;20250;-79
2022/05/04 06:37:30;;;;;;;5.53;5.00;;;;;;;13.05;76.75;95572.91;5057935;28;20657;-78
2022/05/04 06:39:55;;;;;;;5.43;4.93;;;;;;;12.93;76.64;95572.41;5048452;28;20223;-79
2022/05/04 06:42:21;;;;;;;5.93;5.33;;;;;;;12.89;77.15;95573.69;5024725;28;20494;-79
2022/05/04 06:44:46;;;;;;;8.03;5.37;;;;;;;12.96;77.13;95573.88;5056365;28;20201;-79
2022/05/04 06:47:11;;;;;;;6.53;5.67;;;;;;;13.16;76.67;95576.97;5040532;28;20209;-79
2022/05/04 06:49:37;;;;;;;7.07;5.87;;;;;;;13.20;76.10;95578.31;5040223;28;20241;-79
2022/05/04 06:52:02;;;;;;;7.07;5.77;;;;;;;13.38;75.76;95578.16;5040693;28;20670;-80
2022/05/04 06:54:28;;;;;;;6.33;5.83;;;;;;;13.90;73.25;95586.41;5070696;28;20210;-80
2022/05/04 06:56:53;;;;;;;6.60;6.00;;;;;;;14.00;72.21;95588.81;5025108;28;20190;-79
2022/05/04 06:59:18;;;;;;;6.40;5.73;;;;;;;14.42;70.18;95585.91;5022437;28;20178;-80
2022/05/04 07:01:44;;;;;;;6.47;5.93;;;;;;;15.32;67.47;95588.00;5033754;28;20395;-80
2022/05/04 07:04:09;;;;;;;5.57;5.13;;;;;;;16.26;65.84;95586.63;5056390;28;20201;-78
2022/05/04 07:06:34;;;;;;;5.60;5.03;;;;;;;16.92;60.59;95587.44;5039836;28;20217;-80
2022/05/04 07:09:00;;;;;;;5.78;4.88;;;;;;;17.17;58.13;95595.78;5040248;28;20181;-80
2022/05/04 07:11:25;;;;;;;5.78;4.93;;;;;;;17.02;59.68;95595.00;5036102;28;20185;-80
2022/05/04 07:13:50;;;;;;;5.68;5.25;;;;;;;16.12;62.37;95598.72;5050233;28;20449;-79
2022/05/04 07:16:15;;;;;;;5.40;4.95;;;;;;;15.48;65.65;95596.53;5040469;28;20656;-79
2022/05/04 07:18:41;;;;;;;5.60;5.00;;;;;;;15.27;66.88;95596.34;5056581;28;20188;-78
2022/05/04 07:21:06;;;;;;;5.60;5.07;;;;;;;15.23;66.39;95597.72;5056782;28;20209;-79
2022/05/04 07:23:31;;;;;;;6.20;5.35;;;;;;;15.52;66.18;95599.59;5039967;28;20650;-79
2022/05/04 07:25:57;;;;;;;5.72;4.95;;;;;;;15.38;67.60;95598.59;5039028;28;20343;-79
2022/05/04 07:28:23;;;;;;;6.50;5.20;;;;;;;15.59;67.16;95597.91;5056326;28;20177;-79
2022/05/04 07:30:48;;;;;;;4.70;4.30;;;;;;;15.83;67.65;95596.91;5039526;28;20243;-79
2022/05/04 07:33:14;;;;;;;6.68;5.07;;;;;;;15.82;66.67;95600.53;5057250;28;20181;-78
2022/05/04 07:35:39;;;;;;;4.90;4.50;;;;;;;16.05;63.22;95606.47;5057050;28;20568;-80
2022/05/04 07:38:04;;;;;;;5.45;4.90;;;;;;;16.17;63.36;95596.38;5040274;28;20186;-80
2022/05/04 07:43:14;;;;;;;4.85;4.30;;;;;;;15.46;64.58;95597.69;5059574;28;20195;-80
2022/05/04 07:45:39;;;;;;;5.07;4.50;;;;;;;16.10;63.50;95603.34;5055695;28;20217;-80
2022/05/04 07:48:04;;;;;;;6.43;4.90;;;;;;;16.82;63.04;95603.47;5056799;28;20196;-80
2022/05/04 07:50:30;;;;;;;6.05;4.53;;;;;;;16.58;62.39;95603.75;5074921;28;20181;-80
2022/05/04 07:52:55;;;;;;;6.40;4.78;;;;;;;16.85;63.34;95597.03;5035438;28;20170;-80
2022/05/04 07:55:20;;;;;;;5.45;5.00;;;;;;;17.22;61.64;95604.69;5020314;28;20558;-80
2022/05/04 07:57:48;;;;;;;5.32;4.82;;;;;;;17.48;58.30;95605.94;5023190;28;20685;-80
2022/05/04 08:05:42;;;;;;;7.93;7.10;;;;;;;15.68;66.62;95604.72;5052759;28;20220;-80
2022/05/04 08:08:07;;;;;;;7.88;7.13;;;;;;;15.72;68.25;95610.41;5024266;28;20572;-80
2022/05/04 08:10:32;;;;;;;8.15;7.38;;;;;;;15.84;67.92;95609.00;5039439;28;20185;-80
2022/05/04 08:13:01;;;;;;;10.00;8.07;;;;;;;15.90;68.33;95612.69;5037522;28;20180;-80
2022/05/04 08:15:27;;;;;;;8.80;8.00;;;;;;;15.54;70.31;95619.34;5038540;28;20194;-79
2022/05/04 08:17:52;;;;;;;10.07;8.93;;;;;;;15.41;68.82;95619.16;5033156;28;20680;-80
2022/05/04 08:20:17;;;;;;;9.20;8.40;;;;;;;15.39;68.49;95615.09;5043015;28;20276;-80
2022/05/04 08:22:43;;;;;;;9.10;8.30;;;;;;;15.33;69.30;95623.63;5022704;28;20573;-80
2022/05/04 08:25:09;;;;;;;8.63;7.87;;;;;;;15.07;70.54;95627.41;5039401;28;20202;-79
2022/05/04 08:27:34;;;;;;;9.47;8.57;;;;;;;15.10;71.55;95626.22;5058187;28;20573;-79
2022/05/04 08:30:00;;;;;;;8.37;7.47;;;;;;;14.98;71.73;95624.03;5025040;28;20181;-80
2022/05/04 08:32:29;;;;;;;9.60;8.70;;;;;;;14.93;71.21;95628.13;5040217;28;20209;-79
2022/05/04 08:34:55;;;;;;;9.47;8.60;;;;;;;14.93;71.46;95626.34;5057066;28;20335;-79
2022/05/04 08:37:21;;;;;;;8.47;7.57;;;;;;;15.11;72.23;95625.28;5041204;28;20276;-80
2022/05/04 08:39:47;;;;;;;8.57;7.77;;;;;;;15.00;69.63;95627.28;5057414;28;20235;-80
2022/05/04 08:42:13;;;;;;;7.57;6.87;;;;;;;15.04;68.27;95626.94;5057147;28;20260;-79
2022/05/04 08:44:40;;;;;;;8.87;8.07;;;;;;;14.97;68.94;95626.81;5059500;28;20205;-80
2022/05/04 08:47:06;;;;;;;10.03;7.03;;;;;;;15.17;67.99;95632.41;5057706;28;20220;-80
2022/05/04 08:49:32;;;;;;;8.03;7.37;;;;;;;15.46;68.10;95635.16;5058572;28;20192;-80
2022/05/04 08:52:00;;;;;;;7.57;6.80;;;;;;;15.76;67.59;95635.25;5053945;28;20189;-80
2022/05/04 08:54:25;;;;;;;8.20;7.50;;;;;;;15.77;68.08;95634.25;5037601;28;20200;-80
2022/05/04 08:56:51;;;;;;;8.13;6.77;;;;;;;16.17;66.30;95627.00;5040242;28;20533;-79
2022/05/04 08:59:16;;;;;;;7.73;7.03;;;;;;;16.12;68.18;95632.78;5056987;28;20185;-80
2022/05/04 09:01:41;;;;;;;9.13;7.27;;;;;;;16.34;68.53;95631.06;5055580;28;20200;-80
2022/05/04 09:04:07;;;;;;;8.13;7.33;;;;;;;16.20;68.47;95630.06;5038748;28;20360;-80
2022/05/04 09:06:37;;;;;;;8.07;7.23;;;;;;;16.19;67.63;95627.66;5054421;28;20205;-80
2022/05/04 09:09:08;;;;;;;7.87;7.07;;;;;;;16.20;67.61;95629.28;5055522;28;20173;-80
2022/05/04 09:11:36;;;;;;;9.53;7.07;;;;;;;16.05;67.47;95627.44;5038403;28;20180;-80
2022/05/04 09:14:07;;;;;;;8.77;7.88;;;;;;;16.12;68.05;95628.34;5037635;28;20232;-79
2022/05/04 09:16:33;;;;;;;9.27;8.37;;;;;;;15.89;70.28;95627.59;5053883;28;20209;-79
2022/05/04 09:19:05;;;;;;;9.52;8.48;;;;;;;16.17;70.37;95629.59;5038312;28;20255;-80
2022/05/04 09:21:30;;;;;;;10.23;9.23;;;;;;;16.75;67.29;95634.03;5054573;28;20185;-80
2022/05/04 09:23:55;;;;;;;9.98;8.98;;;;;;;16.62;67.38;95634.69;5037728;28;20246;-80
2022/05/04 09:26:22;;;;;;;10.85;9.75;;;;;;;16.76;66.47;95638.28;5035196;28;20209;-81
2022/05/04 09:28:52;;;;;;;11.65;10.45;;;;;;;16.83;65.35;95635.75;5031467;28;20176;-80
2022/05/04 09:31:18;;;;;;;11.18;10.05;;;;;;;16.72;67.73;95631.00;5054820;28;20180;-80
2022/05/04 09:33:52;;;;;;;11.82;10.80;;;;;;;16.81;66.72;95632.50;5036266;28;20180;-80
2022/05/04 09:36:29;;;;;;;14.00;12.67;;;;;;;16.68;67.70;95638.34;5037496;28;20221;-80
2022/05/04 09:47:20;;;;;;;17.85;12.90;;;;;;;16.37;68.31;95636.78;5057997;28;20192;-80
2022/05/04 09:49:50;;;;;;;13.88;12.18;;;;;;;16.40;68.47;95630.34;5038280;28;20181;-80
2022/05/04 09:52:20;;;;;;;13.40;12.00;;;;;;;16.39;67.83;95628.72;5038266;28;20280;-79
2022/05/04 09:54:46;;;;;;;13.05;11.70;;;;;;;16.29;67.99;95629.00;5024470;28;20208;-80
2022/05/04 09:57:12;;;;;;;11.82;10.63;;;;;;;16.72;68.56;95623.94;5038553;28;20177;-80
2022/05/04 09:59:37;;;;;;;14.67;10.77;;;;;;;17.10;67.01;95621.13;5054767;28;20212;-81
2022/05/04 10:02:04;;;;;;;11.97;10.77;;;;;;;17.33;65.92;95620.97;5037892;28;20642;-81
2022/05/04 10:04:32;;;;;;;13.87;10.83;;;;;;;16.85;65.51;95623.25;5036578;28;20782;-79
2022/05/04 10:07:00;;;;;;;14.27;10.82;;;;;;;17.22;64.96;95627.50;5070170;28;20200;-80
2022/05/04 10:09:25;;;;;;;12.18;10.90;;;;;;;17.22;63.26;95614.38;5037869;28;20593;-80
2022/05/04 10:11:57;;;;;;;11.27;9.20;;;;;;;17.27;63.29;95623.31;5036789;28;20196;-80
2022/05/04 10:14:23;;;;;;;11.50;10.30;;;;;;;17.68;62.78;95624.50;5011655;28;20219;-80
2022/05/04 10:16:53;;;;;;;9.73;8.82;;;;;;;17.22;63.44;95619.63;5034484;28;20654;-80
2022/05/04 10:19:23;;;;;;;10.95;9.95;;;;;;;17.60;63.42;95614.94;5043875;28;20184;-80
2022/05/04 10:21:49;;;;;;;12.80;11.00;;;;;;;17.61;61.04;95621.81;5070729;28;20196;-80
2022/05/04 10:24:16;;;;;;;10.63;9.60;;;;;;;16.91;62.97;95612.84;5058976;28;20193;-80
2022/05/04 10:26:44;;;;;;;13.65;10.00;;;;;;;16.24;65.98;95609.56;5042573;28;20193;-81
2022/05/04 10:32:30;;;;;;;13.43;8.70;;;;;;;15.99;64.82;95604.59;5067926;28;20213;-80
2022/05/04 10:35:11;;;;;;;10.73;9.05;;;;;;;15.84;65.52;95601.16;5056730;28;20285;-80
2022/05/04 10:37:54;;;;;;;10.70;7.57;;;;;;;15.72;65.58;95594.69;5055878;28;20189;-81
2022/05/04 10:40:41;;;;;;;7.80;6.97;;;;;;;15.82;65.51;95590.84;5056528;28;20196;-80
2022/05/04 10:43:13;;;;;;;9.48;6.47;;;;;;;16.03;64.43;95599.81;5049450;28;20227;-80
2022/05/04 10:45:40;;;;;;;7.97;7.18;;;;;;;15.89;64.42;95597.97;5054606;28;20217;-80
2022/05/04 10:48:14;;;;;;;8.13;7.33;;;;;;;16.00;64.37;95597.56;5039694;28;20185;-80
2022/05/04 10:51:19;;;;;;;9.40;8.40;;;;;;;15.96;65.64;95602.31;5073206;28;20169;-81
2022/05/04 10:53:50;;;;;;;11.02;8.40;;;;;;;16.24;65.41;95602.50;4939030;28;20188;-80
2022/05/04 10:56:20;;;;;;;8.15;6.85;;;;;;;15.99;63.51;95595.91;4945376;28;20253;-81
2022/05/04 10:58:47;;;;;;;7.53;6.25;;;;;;;16.26;61.98;95595.31;4961441;28;20189;-80
2022/05/04 11:01:16;;;;;;;7.68;6.50;;;;;;;16.15;63.90;95588.69;4934233;28;20193;-80
2022/05/04 11:03:50;;;;;;;7.10;5.88;;;;;;;16.16;63.85;95592.13;4957554;28;20192;-80
2022/05/04 11:06:23;;;;;;;6.70;6.00;;;;;;;16.14;63.81;95592.31;4941781;28;20600;-80
2022/05/04 11:08:48;;;;;;;6.18;5.57;;;;;;;15.99;64.02;95595.91;4932748;28;20189;-80
2022/05/04 11:11:14;;;;;;;7.22;5.43;;;;;;;15.83;65.72;95589.88;4958320;28;20620;-80
2022/05/04 11:13:43;;;;;;;8.52;6.97;;;;;;;15.81;66.98;95593.63;4934906;29;20192;-81
2022/05/04 11:16:08;;;;;;;7.47;6.67;;;;;;;15.57;67.99;95592.84;4938237;28;20184;-80
2022/05/04 11:18:33;;;;;;;7.38;6.78;;;;;;;15.50;68.31;95591.13;4974804;28;20697;-80
2022/05/04 11:21:01;;;;;;;8.85;6.68;;;;;;;15.58;69.04;95583.19;4942100;28;20660;-80
2022/05/04 11:23:27;;;;;;;7.15;6.47;;;;;;;15.61;69.15;95582.06;4958557;28;20689;-80
2022/05/04 11:25:52;;;;;;;8.20;6.78;;;;;;;15.48;69.39;95580.03;4957764;28;20299;-81
2022/05/04 11:28:24;;;;;;;8.07;7.28;;;;;;;15.43;70.59;95580.53;4973987;28;20271;-80
2022/05/04 11:30:52;;;;;;;8.63;7.70;;;;;;;15.32;71.53;95583.56;5010423;28;20246;-81
2022/05/04 11:33:17;;;;;;;7.63;7.00;;;;;;;15.46;71.36;95582.81;5058316;28;20177;-80
2022/05/04 11:35:43;;;;;;;7.28;6.45;;;;;;;15.51;72.78;95582.28;5056824;28;20678;-81
2022/05/04 11:38:21;;;;;;;7.40;6.70;;;;;;;15.46;73.34;95580.19;5057087;28;20568;-81
2022/05/04 11:40:49;;;;;;;11.57;6.93;;;;;;;15.60;73.23;95570.75;5017680;28;20173;-81
2022/05/04 11:43:28;;;;;;;8.10;7.30;;;;;;;15.82;70.52;95574.34;5038226;28;20654;-81
2022/05/04 11:45:56;;;;;;;8.68;7.88;;;;;;;15.84;70.93;95573.16;5036173;28;20673;-81
2022/05/04 11:48:23;;;;;;;8.65;7.20;;;;;;;16.12;68.58;95575.97;5040233;28;20276;-80
2022/05/04 11:50:49;;;;;;;12.10;9.57;;;;;;;16.24;68.38;95563.22;5056532;28;20181;-81
2022/05/04 11:53:15;;;;;;;10.05;8.73;;;;;;;16.43;66.89;95559.22;5056807;28;20246;-80
2022/05/04 11:55:40;;;;;;;11.40;10.30;;;;;;;16.55;66.85;95557.75;5039816;28;20579;-81
2022/05/04 11:58:10;;;;;;;13.48;9.25;;;;;;;16.65;66.05;95558.28;5040203;28;20205;-80
2022/05/04 12:00:37;;;;;;;9.95;8.98;;;;;;;17.10;64.54;95563.41;5056916;28;20182;-79
2022/05/04 12:03:04;;;;;;;11.23;9.32;;;;;;;17.16;62.26;95565.28;5039918;28;20306;-81
2022/05/04 12:05:29;;;;;;;11.98;8.77;;;;;;;17.50;58.24;95560.13;5056780;28;20212;-80
2022/05/04 12:07:55;;;;;;;10.57;9.05;;;;;;;17.85;57.50;95557.59;5039783;28;20277;-81
2022/05/04 12:10:20;;;;;;;9.95;8.60;;;;;;;18.15;58.14;95558.16;5056742;28;20178;-81